createdAt,value
2023-03-29T00:04:34.838Z,101189.31
2023-03-29T00:09:50.813Z,101403.28
2023-03-29T00:14:48.363Z,101399.06
2023-03-29T00:19:51.256Z,101185.28
2023-03-29T00:24:49.933Z,101401.78
2023-03-29T00:29:46.853Z,101189.81
2023-03-29T00:34:48.398Z,101108.72
2023-03-29T00:39:45.451Z,101283.81
2023-03-29T00:45:03.219Z,101354.03
2023-03-29T00:50:04.070Z,101348.06
2023-03-29T00:55:10.270Z,101352.44
2023-03-29T01:00:28.437Z,101411.81
2023-03-29T01:05:34.203Z,101410.09
2023-03-29T01:10:34.531Z,101385.75
2023-03-29T01:15:30.897Z,101349.44
2023-03-29T01:20:36.364Z,101313.09
2023-03-29T01:25:54.525Z,101333.44
2023-03-29T01:36:36.538Z,101410.56
2023-03-29T01:42:04.290Z,101399.50
2023-03-29T01:47:22.638Z,101258.31
2023-03-29T01:52:32.690Z,101290.63
2023-03-29T01:57:46.978Z,101270.34
2023-03-29T02:03:07.042Z,101417.59
2023-03-29T02:08:11.453Z,101207.94
2023-03-29T02:13:19.092Z,101428.81
2023-03-29T02:18:22.980Z,101438.25
2023-03-29T02:24:01.828Z,101188.69
2023-03-29T02:28:57.829Z,101325.78
2023-03-29T02:33:59.202Z,101236.25
2023-03-29T02:39:12.550Z,101464.03
2023-03-29T02:44:25.106Z,101223.63
2023-03-29T02:49:43.777Z,101381.84
2023-03-29T02:54:48.193Z,101266.88
2023-03-29T02:59:48.553Z,101279.69
2023-03-29T03:04:46.651Z,101245.09
2023-03-29T03:09:45.159Z,101376.38
2023-03-29T03:15:25.056Z,101418.81
2023-03-29T03:20:42.452Z,101503.53
2023-03-29T03:25:45.971Z,101288.53
2023-03-29T03:30:56.239Z,101470.72
2023-03-29T03:36:14.249Z,101528.59
2023-03-29T03:41:16.698Z,101397.38
2023-03-29T03:46:39.986Z,101537.31
2023-03-29T03:51:45.942Z,101386.56
2023-03-29T03:56:44.984Z,101519.78
2023-03-29T04:02:35.801Z,101358.03
2023-03-29T04:07:38.007Z,101581.19
2023-03-29T04:13:07.796Z,101332.84
2023-03-29T04:19:09.238Z,101515.94
2023-03-29T04:24:41.462Z,101593.22
2023-03-29T04:30:11.275Z,101550.00
2023-03-29T04:36:12.179Z,101309.19
2023-03-29T04:41:19.709Z,101546.63
2023-03-29T04:46:49.119Z,101617.13
2023-03-29T04:52:16.207Z,101623.16
2023-03-29T04:57:28.789Z,101549.38
2023-03-29T05:02:34.080Z,101585.13
2023-03-29T05:07:53.175Z,101641.88
2023-03-29T05:12:57.354Z,101508.75
2023-03-29T05:18:13.768Z,101611.22
2023-03-29T05:23:08.588Z,101505.09
2023-03-29T05:28:44.453Z,101449.94
2023-03-29T05:34:04.762Z,101671.22
2023-03-29T05:45:12.940Z,101679.47
2023-03-29T05:50:30.063Z,101541.91
2023-03-29T05:55:32.808Z,101527.22
2023-03-29T06:00:42.577Z,101625.38
2023-03-29T06:12:11.155Z,101605.31
2023-03-29T06:17:55.778Z,101525.41
2023-03-29T06:23:49.562Z,101688.63
2023-03-29T06:29:00.752Z,101697.75
2023-03-29T06:34:27.323Z,101697.25
2023-03-29T06:40:07.926Z,101504.50
2023-03-29T06:45:24.340Z,101585.41
2023-03-29T06:51:55.111Z,101544.19
2023-03-29T06:57:34.943Z,101685.97
2023-03-29T07:02:47.228Z,101645.81
2023-03-29T07:08:11.586Z,101681.75
2023-03-29T07:13:30.269Z,101647.63
2023-03-29T07:18:28.841Z,101614.31
2023-03-29T07:23:52.599Z,101549.41
2023-03-29T07:28:50.856Z,101694.31
2023-03-29T07:33:46.735Z,101547.97
2023-03-29T07:38:46.094Z,101633.03
2023-03-29T07:43:53.520Z,101503.88
2023-03-29T07:49:22.719Z,101507.56
2023-03-29T07:54:37.702Z,101634.47
2023-03-29T08:00:15.551Z,101487.69
2023-03-29T08:05:23.230Z,101677.28
2023-03-29T08:10:41.167Z,101439.34
2023-03-29T08:15:53.401Z,101657.22
2023-03-29T08:21:03.569Z,101586.63
2023-03-29T08:26:03.828Z,101589.22
2023-03-29T08:31:05.960Z,101556.44
2023-03-29T08:36:00.034Z,101428.34
2023-03-29T08:41:00.335Z,101600.00
2023-03-29T08:46:17.939Z,101658.63
2023-03-29T08:51:26.089Z,101563.28
2023-03-29T08:56:34.349Z,101605.91
2023-03-29T09:01:47.409Z,101580.50
2023-03-29T09:06:50.402Z,101653.22
2023-03-29T09:12:12.548Z,101609.19
2023-03-29T09:18:00.799Z,101602.72
2023-03-29T09:23:55.717Z,101659.75
2023-03-29T09:29:53.784Z,101672.97
2023-03-29T09:35:31.168Z,101622.25
2023-03-29T09:41:11.350Z,101672.63
2023-03-29T09:46:35.783Z,101499.22
2023-03-29T09:53:06.024Z,101743.50
2023-03-29T09:58:18.434Z,101636.19
2023-03-29T10:10:07.052Z,101512.41
2023-03-29T10:20:41.061Z,101697.34
2023-03-29T10:32:16.663Z,101651.84
2023-03-29T10:37:33.802Z,101646.38
2023-03-29T10:42:53.691Z,101508.13
2023-03-29T10:48:31.118Z,101684.66
2023-03-29T11:00:05.843Z,101605.38
2023-03-29T11:05:39.080Z,101573.19
2023-03-29T11:19:04.131Z,101645.84
2023-03-29T11:24:36.087Z,101636.47
2023-03-29T11:36:12.528Z,101628.53
2023-03-29T11:42:26.317Z,101413.13
2023-03-29T11:48:17.903Z,101516.41
2023-03-29T11:54:17.984Z,101519.38
2023-03-29T11:59:30.480Z,101422.78
2023-03-29T12:04:51.145Z,101622.06
2023-03-29T12:10:13.771Z,101518.50
2023-03-29T12:16:02.871Z,101375.38
2023-03-29T12:21:44.410Z,101467.13
2023-03-29T12:34:34.563Z,101643.59
2023-03-29T12:40:48.675Z,101416.22
2023-03-29T12:46:25.174Z,101578.47
2023-03-29T12:58:13.305Z,101443.59
2023-03-29T13:10:40.584Z,101518.47
2023-03-29T13:17:18.487Z,101377.03
2023-03-29T13:23:03.947Z,101637.56
2023-03-29T14:24:12.954Z,101648.41
2023-03-29T14:29:53.613Z,101600.13
2023-03-29T14:34:56.467Z,101570.94
2023-03-29T14:53:04.274Z,101434.84
2023-03-29T15:53:15.061Z,101515.22
2023-03-29T16:06:13.857Z,101546.78
2023-03-29T16:17:29.141Z,101706.31
2023-03-29T16:18:09.229Z,101670.19
2023-03-29T17:46:53.204Z,101654.53
2023-03-29T17:53:03.353Z,101798.94
2023-03-29T18:05:13.472Z,101832.78
2023-03-29T18:35:51.017Z,101668.31
2023-03-29T18:46:50.904Z,101896.94
2023-03-29T18:52:21.904Z,101859.97
2023-03-29T18:57:49.993Z,101802.59
2023-03-29T19:03:59.615Z,101866.50
2023-03-29T19:11:06.657Z,101865.19
2023-03-29T19:16:52.898Z,101847.59
2023-03-29T19:22:32.467Z,101875.94
2023-03-29T19:40:43.204Z,101931.16
2023-03-29T19:52:25.035Z,101933.69
2023-03-29T19:58:09.964Z,101934.59
2023-03-29T20:10:30.422Z,101725.88
2023-03-29T20:16:32.860Z,101939.72
2023-03-29T20:22:33.310Z,101708.88
2023-03-29T20:28:41.572Z,101618.97
2023-03-29T20:34:26.173Z,101752.09
2023-03-29T20:40:46.290Z,101938.88
2023-03-29T20:59:48.031Z,101648.25
2023-03-29T21:18:40.983Z,101937.81
2023-03-29T21:29:59.620Z,101947.75
2023-03-29T21:41:01.456Z,101871.78
2023-03-29T21:46:19.433Z,101864.34
2023-03-29T21:52:11.301Z,101630.16
2023-03-29T21:57:59.409Z,101795.00
2023-03-29T22:03:40.571Z,101944.47
2023-03-29T22:14:55.823Z,101948.88
2023-03-29T22:20:15.233Z,101939.41
2023-03-29T22:25:59.562Z,101938.34
2023-03-29T22:31:25.309Z,101670.75
2023-03-29T22:36:36.399Z,101944.97
2023-03-29T22:41:38.151Z,101954.47
2023-03-29T22:46:48.018Z,101952.06
2023-03-29T22:51:51.025Z,101833.28
2023-03-29T22:57:00.711Z,101839.34
2023-03-29T23:07:48.957Z,101968.78
2023-03-29T23:13:09.198Z,101964.56
2023-03-29T23:18:29.254Z,101848.25
2023-03-29T23:28:42.590Z,101811.81
2023-03-29T23:33:43.853Z,101836.53
2023-03-29T23:38:48.903Z,101964.88
2023-03-29T23:43:49.048Z,101966.56
2023-03-29T23:48:53.573Z,101918.22
2023-03-29T23:54:25.438Z,101902.00
